createdAt,value
2019-04-14T00:00:20.787Z,2.91
2019-04-14T00:01:19.746Z,2.91
2019-04-14T00:02:20.685Z,2.94
2019-04-14T00:03:19.725Z,2.92
2019-04-14T00:04:20.356Z,2.89
2019-04-14T00:05:19.699Z,2.91
2019-04-14T00:06:20.226Z,2.89
2019-04-14T00:07:20.821Z,2.92
2019-04-14T00:08:19.858Z,2.88
2019-04-14T00:09:20.564Z,2.89
2019-04-14T00:10:20.378Z,2.81
2019-04-14T00:11:19.644Z,2.81
2019-04-14T00:12:20.759Z,2.84
2019-04-14T00:13:19.644Z,2.71
2019-04-14T00:14:20.747Z,2.77
2019-04-14T00:15:29.476Z,2.74
2019-04-14T00:16:20.731Z,2.74
2019-04-14T00:17:19.598Z,2.63
2019-04-14T00:18:20.761Z,2.81
2019-04-14T00:19:19.611Z,2.69
2019-04-14T00:20:20.419Z,2.87
2019-04-14T00:21:19.545Z,2.82
2019-04-14T00:22:20.554Z,2.71
2019-04-14T00:23:19.557Z,2.87
2019-04-14T00:24:20.637Z,2.88
2019-04-14T00:25:19.564Z,2.88
2019-04-14T00:26:20.488Z,2.87
2019-04-14T00:27:19.477Z,2.88
2019-04-14T00:28:20.600Z,2.88
2019-04-14T00:29:19.585Z,2.89
2019-04-14T00:30:19.446Z,2.89
2019-04-14T00:31:19.547Z,2.92
2019-04-14T00:32:20.433Z,3.02
2019-04-14T00:33:19.420Z,2.94
2019-04-14T00:34:20.281Z,2.88
2019-04-14T00:35:19.396Z,2.89
2019-04-14T00:36:19.786Z,2.81
2019-04-14T00:37:20.485Z,2.84
2019-04-14T00:38:19.571Z,2.95
2019-04-14T00:39:20.467Z,2.77
2019-04-14T00:40:19.371Z,2.74
2019-04-14T00:41:20.169Z,2.87
2019-04-14T00:42:19.334Z,2.70
2019-04-14T00:43:19.973Z,2.79
2019-04-14T00:44:19.305Z,2.69
2019-04-14T00:45:32.168Z,2.70
2019-04-14T00:46:21.180Z,2.76
2019-04-14T00:47:20.027Z,2.66
2019-04-14T00:48:20.911Z,2.84
2019-04-14T00:49:20.006Z,2.63
2019-04-14T00:50:19.271Z,2.71
2019-04-14T00:51:19.922Z,2.79
2019-04-14T00:52:19.233Z,2.69
2019-04-14T00:53:19.233Z,2.82
2019-04-14T00:54:19.602Z,2.74
2019-04-14T00:55:20.413Z,2.81
2019-04-14T00:56:19.478Z,2.77
2019-04-14T00:57:20.142Z,2.81
2019-04-14T00:58:19.250Z,2.70
2019-04-14T00:59:20.071Z,2.76
2019-04-14T01:00:20.413Z,2.76
2019-04-14T01:01:19.717Z,2.69
2019-04-14T01:02:19.122Z,2.81
2019-04-14T01:03:19.925Z,2.85
2019-04-14T01:04:19.100Z,2.81
2019-04-14T01:05:19.544Z,2.71
2019-04-14T01:06:19.077Z,2.76
2019-04-14T01:07:19.535Z,2.77
2019-04-14T01:08:19.071Z,2.70
2019-04-14T01:09:19.415Z,2.61
2019-04-14T01:10:19.252Z,2.69
2019-04-14T01:11:20.264Z,2.74
2019-04-14T01:12:19.246Z,2.64
2019-04-14T01:13:20.095Z,2.45
2019-04-14T01:14:19.094Z,2.56
2019-04-14T01:15:20.029Z,2.64
2019-04-14T01:16:23.091Z,2.49
2019-04-14T01:17:19.879Z,2.46
2019-04-14T01:18:19.022Z,2.44
2019-04-14T01:19:19.871Z,2.48
2019-04-14T01:20:18.977Z,2.35
2019-04-14T01:21:19.645Z,2.38
2019-04-14T01:22:18.917Z,2.46
2019-04-14T01:23:19.381Z,2.38
2019-04-14T01:24:18.893Z,2.33
2019-04-14T01:25:19.358Z,2.37
2019-04-14T01:26:18.883Z,2.40
2019-04-14T01:27:18.973Z,2.40
2019-04-14T01:28:20.036Z,2.35
2019-04-14T01:29:18.864Z,2.28
2019-04-14T01:30:19.882Z,2.30
2019-04-14T01:31:18.823Z,2.37
2019-04-14T01:32:19.733Z,2.23
2019-04-14T01:33:18.804Z,2.22
2019-04-14T01:34:19.501Z,2.23
2019-04-14T01:35:18.825Z,2.26
2019-04-14T01:36:19.166Z,2.26
2019-04-14T01:37:18.759Z,2.19
2019-04-14T01:38:19.043Z,2.27
2019-04-14T01:39:19.754Z,2.20
2019-04-14T01:40:18.733Z,2.20
2019-04-14T01:41:19.370Z,2.26
2019-04-14T01:42:18.706Z,2.13
2019-04-14T01:43:18.946Z,2.15
2019-04-14T01:44:19.845Z,2.30
2019-04-14T01:45:18.705Z,2.20
2019-04-14T01:46:25.763Z,2.22
2019-04-14T01:47:20.516Z,2.19
2019-04-14T01:48:19.232Z,2.16
2019-04-14T01:49:18.640Z,2.15
2019-04-14T01:50:19.121Z,2.15
2019-04-14T01:51:18.712Z,2.26
2019-04-14T01:52:18.819Z,2.23
2019-04-14T01:53:18.595Z,2.26
2019-04-14T01:54:19.212Z,2.23
2019-04-14T01:55:18.602Z,2.30
2019-04-14T01:56:18.755Z,2.17
2019-04-14T01:57:18.559Z,2.17
2019-04-14T01:58:18.719Z,2.19
2019-04-14T01:59:19.762Z,2.17
2019-04-14T02:00:18.555Z,2.30
2019-04-14T02:01:19.553Z,2.26
2019-04-14T02:02:18.506Z,2.22
2019-04-14T02:03:19.499Z,2.20
2019-04-14T02:04:18.479Z,2.22
2019-04-14T02:05:19.207Z,2.23
2019-04-14T02:06:18.463Z,2.19
2019-04-14T02:07:19.059Z,2.22
2019-04-14T02:08:19.577Z,2.23
2019-04-14T02:09:18.679Z,2.23
2019-04-14T02:10:19.446Z,2.17
2019-04-14T02:11:18.646Z,2.22
2019-04-14T02:12:19.247Z,2.26
2019-04-14T02:13:18.562Z,2.19
2019-04-14T02:14:19.047Z,2.12
2019-04-14T02:15:18.478Z,2.22
2019-04-14T02:16:25.960Z,2.22
2019-04-14T02:17:19.824Z,2.15
2019-04-14T02:18:18.626Z,2.22
2019-04-14T02:19:18.395Z,2.27
2019-04-14T02:20:18.622Z,2.16
2019-04-14T02:21:19.452Z,2.20
2019-04-14T02:22:18.387Z,2.19
2019-04-14T02:23:19.253Z,2.27
2019-04-14T02:24:18.289Z,2.23
2019-04-14T02:25:18.874Z,2.15
2019-04-14T02:26:18.266Z,2.27
2019-04-14T02:27:18.858Z,2.17
2019-04-14T02:28:19.911Z,2.19
2019-04-14T02:29:18.968Z,2.23
2019-04-14T02:30:23.339Z,2.26
2019-04-14T02:31:37.461Z,2.20
2019-04-14T02:32:49.341Z,2.20
2019-04-14T02:33:44.358Z,2.27
2019-04-14T02:34:53.613Z,2.31
2019-04-14T02:35:45.119Z,2.26
2019-04-14T02:36:54.064Z,2.26
2019-04-14T02:37:55.970Z,2.19
2019-04-14T02:38:49.346Z,2.13
2019-04-14T02:39:54.092Z,2.20
2019-04-14T02:41:57.001Z,2.22
2019-04-14T02:44:45.904Z,2.20
2019-04-14T02:48:55.426Z,2.23
2019-04-14T02:49:58.188Z,2.12
2019-04-14T02:50:49.570Z,2.26
2019-04-14T02:51:42.500Z,2.26
2019-04-14T02:53:01.214Z,2.22
2019-04-14T02:53:50.107Z,2.27
2019-04-14T02:55:00.003Z,2.26
2019-04-14T02:55:50.914Z,2.23
2019-04-14T02:56:43.680Z,2.20
2019-04-14T02:57:44.837Z,2.31
2019-04-14T02:59:37.279Z,2.23
2019-04-14T02:59:42.969Z,2.35
2019-04-14T03:00:51.025Z,2.20
2019-04-14T03:01:55.077Z,2.27
2019-04-14T03:02:43.652Z,2.23
2019-04-14T03:03:43.553Z,2.23
2019-04-14T03:04:45.408Z,2.26
2019-04-14T03:05:54.415Z,2.27
2019-04-14T03:06:41.247Z,2.31
2019-04-14T03:07:45.681Z,2.33
2019-04-14T03:09:48.687Z,2.35
2019-04-14T03:11:49.218Z,2.35
2019-04-14T03:13:44.963Z,2.34
2019-04-14T03:14:47.431Z,2.38
2019-04-14T03:15:53.646Z,2.33
2019-04-14T03:16:54.334Z,2.37
2019-04-14T03:17:47.320Z,2.27
2019-04-14T03:18:48.362Z,2.33
2019-04-14T03:19:59.362Z,2.34
2019-04-14T03:20:41.473Z,2.37
2019-04-14T03:21:40.346Z,2.40
2019-04-14T03:22:45.966Z,2.44
2019-04-14T03:23:48.707Z,2.40
2019-04-14T03:24:34.194Z,2.52
2019-04-14T03:25:39.361Z,2.38
2019-04-14T03:26:44.231Z,2.51
2019-04-14T03:28:45.442Z,2.44
2019-04-14T03:29:45.076Z,2.34
2019-04-14T03:32:04.662Z,2.35
2019-04-14T03:33:13.784Z,2.33
2019-04-14T03:34:54.650Z,2.31
2019-04-14T03:38:05.047Z,2.38
2019-04-14T03:41:45.173Z,2.49
2019-04-14T03:42:43.919Z,2.35
2019-04-14T03:44:56.869Z,2.49
2019-04-14T03:46:04.395Z,2.41
2019-04-14T03:47:57.898Z,2.58
2019-04-14T03:50:00.077Z,2.46
2019-04-14T03:50:45.944Z,2.52
2019-04-14T03:51:50.312Z,2.55
2019-04-14T03:52:50.156Z,2.53
2019-04-14T03:53:40.210Z,2.51
2019-04-14T03:54:36.685Z,2.58
2019-04-14T03:55:28.411Z,2.52
2019-04-14T03:56:20.087Z,2.61
2019-04-14T03:57:17.329Z,2.51
2019-04-14T03:58:18.244Z,2.56
2019-04-14T03:59:17.620Z,2.58
2019-04-14T04:00:18.066Z,2.53
2019-04-14T04:01:17.317Z,2.59
2019-04-14T04:02:18.275Z,2.63
2019-04-14T04:03:17.415Z,2.41
2019-04-14T04:04:18.344Z,2.66
2019-04-14T04:05:17.438Z,2.52
2019-04-14T04:06:18.139Z,2.67
2019-04-14T04:07:17.222Z,2.64
2019-04-14T04:08:18.057Z,2.61
2019-04-14T04:09:17.210Z,2.66
2019-04-14T04:10:17.983Z,2.67
2019-04-14T04:11:17.264Z,2.64
2019-04-14T04:12:18.176Z,2.73
2019-04-14T04:13:17.254Z,2.66
2019-04-14T04:14:18.139Z,2.63
2019-04-14T04:15:17.164Z,2.66
2019-04-14T04:16:18.060Z,2.66
2019-04-14T04:17:17.118Z,2.63
2019-04-14T04:18:17.744Z,2.70
2019-04-14T04:19:19.372Z,2.66
2019-04-14T04:20:17.405Z,2.64
2019-04-14T04:21:18.325Z,2.63
2019-04-14T04:22:17.245Z,2.61
2019-04-14T04:23:18.182Z,2.76
2019-04-14T04:24:17.112Z,2.73
2019-04-14T04:25:18.000Z,2.58
2019-04-14T04:26:17.034Z,2.69
2019-04-14T04:27:17.975Z,2.74
2019-04-14T04:28:17.007Z,2.67
2019-04-14T04:29:17.921Z,2.61
2019-04-14T04:30:17.015Z,2.67
2019-04-14T04:31:17.785Z,2.69
2019-04-14T04:32:17.009Z,2.61
2019-04-14T04:33:17.661Z,2.64
2019-04-14T04:34:18.308Z,2.66
2019-04-14T04:35:17.502Z,2.64
2019-04-14T04:36:18.133Z,2.63
2019-04-14T04:37:17.202Z,2.64
2019-04-14T04:38:18.017Z,2.69
2019-04-14T04:39:17.114Z,2.52
2019-04-14T04:40:17.903Z,2.55
2019-04-14T04:41:16.918Z,2.63
2019-04-14T04:42:17.659Z,2.51
2019-04-14T04:43:16.921Z,2.55
2019-04-14T04:44:17.940Z,2.64
2019-04-14T04:45:17.086Z,2.56
2019-04-14T04:46:17.683Z,2.58
2019-04-14T04:47:16.822Z,2.63
2019-04-14T04:48:17.409Z,2.48
2019-04-14T04:49:22.640Z,2.51
2019-04-14T04:50:17.797Z,2.59
2019-04-14T04:51:18.216Z,2.52
2019-04-14T04:52:17.318Z,2.58
2019-04-14T04:53:17.973Z,2.52
2019-04-14T04:54:16.892Z,2.58
2019-04-14T04:55:17.739Z,2.59
2019-04-14T04:56:16.746Z,2.59
2019-04-14T04:57:17.824Z,2.51
2019-04-14T04:58:17.330Z,2.56
2019-04-14T04:59:17.078Z,2.53
2019-04-14T05:00:17.882Z,2.64
2019-04-14T05:01:16.814Z,2.66
2019-04-14T05:02:17.689Z,2.64
2019-04-14T05:03:16.902Z,2.63
2019-04-14T05:04:17.637Z,2.67
2019-04-14T05:05:16.679Z,2.66
2019-04-14T05:06:19.262Z,2.69
2019-04-14T05:07:16.751Z,2.53
2019-04-14T05:08:17.413Z,2.53
2019-04-14T05:09:16.666Z,2.55
2019-04-14T05:10:17.474Z,2.56
2019-04-14T05:11:16.604Z,2.56
2019-04-14T05:12:17.430Z,2.55
2019-04-14T05:13:16.549Z,2.58
2019-04-14T05:14:17.306Z,2.49
2019-04-14T05:15:16.638Z,2.63
2019-04-14T05:16:17.068Z,2.61
2019-04-14T05:17:16.983Z,2.52
2019-04-14T05:18:17.718Z,2.58
2019-04-14T05:19:25.031Z,2.64
2019-04-14T05:20:18.074Z,2.61
2019-04-14T05:21:17.085Z,2.53
2019-04-14T05:22:18.235Z,2.48
2019-04-14T05:23:16.967Z,2.53
2019-04-14T05:24:16.432Z,2.52
2019-04-14T05:25:16.737Z,2.56
2019-04-14T05:26:17.703Z,2.58
2019-04-14T05:27:16.733Z,2.53
2019-04-14T05:28:17.696Z,2.56
2019-04-14T05:29:16.752Z,2.59
2019-04-14T05:30:17.486Z,2.58
2019-04-14T05:31:16.532Z,2.58
2019-04-14T05:32:17.394Z,2.59
2019-04-14T05:33:16.356Z,2.51
2019-04-14T05:34:17.290Z,2.58
2019-04-14T05:35:16.352Z,2.58
2019-04-14T05:36:17.096Z,2.58
2019-04-14T05:37:16.304Z,2.46
2019-04-14T05:38:16.941Z,2.52
2019-04-14T05:39:16.329Z,2.52
2019-04-14T05:40:16.795Z,2.51
2019-04-14T05:41:16.297Z,2.56
2019-04-14T05:42:20.167Z,2.59
2019-04-14T05:43:30.234Z,2.58
2019-04-14T05:44:18.533Z,2.59
2019-04-14T05:45:17.535Z,2.56
2019-04-14T05:46:16.383Z,2.55
2019-04-14T05:47:17.510Z,2.56
2019-04-14T05:48:18.243Z,2.56
2019-04-14T05:49:29.558Z,2.66
2019-04-14T05:50:18.154Z,2.63
2019-04-14T05:51:18.887Z,2.64
2019-04-14T05:52:16.391Z,2.67
2019-04-14T05:53:16.142Z,2.77
2019-04-14T05:54:16.359Z,2.73
2019-04-14T05:55:16.123Z,2.67
2019-04-14T05:56:16.437Z,2.64
2019-04-14T05:57:16.176Z,2.69
2019-04-14T05:58:16.449Z,2.74
2019-04-14T05:59:16.085Z,2.77
2019-04-14T06:00:16.733Z,2.71
2019-04-14T06:01:16.357Z,2.79
2019-04-14T06:02:16.048Z,2.79
2019-04-14T06:03:16.752Z,2.81
2019-04-14T06:04:16.050Z,2.73
2019-04-14T06:05:16.584Z,2.64
2019-04-14T06:06:16.006Z,2.70
2019-04-14T06:07:16.166Z,2.74
2019-04-14T06:09:25.776Z,2.69
2019-04-14T06:10:25.761Z,2.76
2019-04-14T06:11:25.735Z,2.73
2019-04-14T06:12:25.768Z,2.66
2019-04-14T06:13:25.718Z,2.66
2019-04-14T06:14:25.707Z,2.73
2019-04-14T06:15:25.684Z,2.73
2019-04-14T06:16:25.960Z,2.67
2019-04-14T06:17:25.726Z,2.70
2019-04-14T06:18:25.690Z,2.71
2019-04-14T06:19:36.436Z,2.67
2019-04-14T06:20:26.643Z,2.67
2019-04-14T06:21:25.640Z,2.70
2019-04-14T06:22:25.679Z,2.74
2019-04-14T06:23:25.608Z,2.69
2019-04-14T06:24:25.606Z,2.76
2019-04-14T06:25:25.617Z,2.69
2019-04-14T06:26:25.586Z,2.79
2019-04-14T06:27:25.595Z,2.89
2019-04-14T06:28:25.562Z,2.73
2019-04-14T06:29:25.562Z,2.74
2019-04-14T06:30:25.547Z,2.79
2019-04-14T06:31:26.446Z,2.74
2019-04-14T06:32:25.565Z,2.73
2019-04-14T06:33:25.512Z,2.76
2019-04-14T06:34:25.503Z,2.79
2019-04-14T06:35:25.546Z,2.73
2019-04-14T06:36:25.481Z,2.76
2019-04-14T06:37:25.500Z,2.74
2019-04-14T06:38:25.462Z,2.73
2019-04-14T06:39:25.453Z,2.82
2019-04-14T06:40:25.433Z,2.79
2019-04-14T06:41:25.428Z,2.84
2019-04-14T06:42:25.469Z,2.79
2019-04-14T06:43:25.431Z,2.85
2019-04-14T06:44:25.410Z,2.87
2019-04-14T06:45:25.389Z,2.81
2019-04-14T06:46:25.375Z,2.85
2019-04-14T06:47:25.399Z,2.70
2019-04-14T06:48:25.366Z,2.81
2019-04-14T06:49:25.459Z,2.76
2019-04-14T06:50:25.331Z,2.81
2019-04-14T06:51:25.365Z,2.71
2019-04-14T06:52:25.344Z,2.74
2019-04-14T06:53:25.302Z,2.77
2019-04-14T06:54:25.296Z,2.74
2019-04-14T06:55:25.300Z,2.70
2019-04-14T06:56:25.271Z,2.77
2019-04-14T06:57:25.310Z,2.81
2019-04-14T06:58:25.252Z,2.84
2019-04-14T06:59:25.256Z,2.82
2019-04-14T07:00:25.240Z,2.76
2019-04-14T07:01:25.234Z,2.77
2019-04-14T07:02:25.242Z,2.77
2019-04-14T07:03:25.229Z,2.91
2019-04-14T07:04:25.195Z,2.91
2019-04-14T07:05:25.221Z,3.03
2019-04-14T07:06:25.173Z,3.10
2019-04-14T07:07:25.169Z,3.23
2019-04-14T07:08:25.158Z,3.25
2019-04-14T07:09:25.152Z,3.28
2019-04-14T07:10:25.182Z,3.42
2019-04-14T07:11:25.124Z,3.43
2019-04-14T07:12:25.137Z,3.40
2019-04-14T07:13:25.103Z,3.54
2019-04-14T07:14:25.098Z,3.52
2019-04-14T07:15:25.089Z,3.58
2019-04-14T07:16:25.111Z,3.65
2019-04-14T07:17:25.088Z,3.76
2019-04-14T07:18:25.056Z,3.70
2019-04-14T07:19:25.041Z,3.83
2019-04-14T07:20:25.026Z,3.80
2019-04-14T07:21:25.023Z,3.79
2019-04-14T07:22:25.117Z,3.76
2019-04-14T07:23:25.156Z,3.79
2019-04-14T07:24:24.991Z,3.79
2019-04-14T07:25:24.971Z,3.80
2019-04-14T07:26:24.969Z,3.75
2019-04-14T07:27:24.978Z,3.79
2019-04-14T07:28:24.940Z,3.86
2019-04-14T07:29:24.941Z,3.92
2019-04-14T07:30:24.933Z,3.92
2019-04-14T07:31:24.925Z,4.03
2019-04-14T07:32:24.935Z,4.10
2019-04-14T07:33:24.890Z,4.14
2019-04-14T07:34:24.887Z,4.16
2019-04-14T07:35:24.877Z,4.26
2019-04-14T07:36:24.873Z,4.26
2019-04-14T07:37:24.895Z,4.44
2019-04-14T07:38:24.849Z,4.37
2019-04-14T07:39:24.858Z,4.37
2019-04-14T07:40:24.828Z,4.43
2019-04-14T07:41:24.811Z,4.51
2019-04-14T07:42:24.846Z,4.50
2019-04-14T07:43:24.794Z,4.46
2019-04-14T07:44:24.776Z,4.52
2019-04-14T07:45:24.773Z,4.61
2019-04-14T07:46:24.764Z,4.69
2019-04-14T07:47:24.784Z,4.75
2019-04-14T07:48:25.878Z,4.75
2019-04-14T07:49:25.654Z,4.92
2019-04-14T07:50:24.909Z,4.89
2019-04-14T07:51:26.008Z,4.80
2019-04-14T07:52:25.146Z,4.73
2019-04-14T07:53:25.469Z,4.98
2019-04-14T07:54:26.030Z,5.20
2019-04-14T07:55:24.663Z,5.16
2019-04-14T07:56:25.147Z,5.31
2019-04-14T07:57:26.807Z,5.35
2019-04-14T07:58:24.660Z,5.41
2019-04-14T07:59:24.630Z,5.35
2019-04-14T08:00:24.890Z,5.30
2019-04-14T08:01:26.021Z,5.37
2019-04-14T08:02:24.621Z,5.53
2019-04-14T08:03:24.582Z,5.40
2019-04-14T08:04:25.641Z,5.23
2019-04-14T08:05:24.567Z,5.22
2019-04-14T08:06:24.748Z,5.35
2019-04-14T08:07:26.306Z,5.46
2019-04-14T08:08:24.679Z,5.50
2019-04-14T08:09:24.703Z,5.52
2019-04-14T08:10:25.579Z,5.49
2019-04-14T08:11:24.608Z,5.52
2019-04-14T08:12:24.828Z,5.40
2019-04-14T08:13:25.564Z,5.40
2019-04-14T08:14:25.281Z,5.27
2019-04-14T08:15:24.794Z,5.32
2019-04-14T08:16:24.457Z,5.35
2019-04-14T08:17:24.474Z,5.22
2019-04-14T08:18:25.127Z,5.04
2019-04-14T08:19:25.258Z,5.28
2019-04-14T08:20:27.681Z,5.50
2019-04-14T08:21:24.406Z,5.55
2019-04-14T08:22:26.533Z,5.52
2019-04-14T08:23:24.416Z,5.50
2019-04-14T08:24:25.214Z,5.32
2019-04-14T08:25:24.362Z,5.27
2019-04-14T08:26:25.501Z,5.45
2019-04-14T08:27:25.511Z,5.37
2019-04-14T08:28:25.034Z,5.37
2019-04-14T08:29:24.486Z,5.22
2019-04-14T08:30:24.321Z,5.22
2019-04-14T08:31:25.527Z,5.32
2019-04-14T08:32:25.000Z,5.32
2019-04-14T08:33:25.554Z,5.32
2019-04-14T08:34:25.301Z,5.19
2019-04-14T08:35:24.791Z,5.04
2019-04-14T08:36:26.005Z,5.02
2019-04-14T08:37:24.542Z,5.20
2019-04-14T08:38:25.454Z,5.27
2019-04-14T08:39:24.554Z,5.20
2019-04-14T08:40:24.921Z,5.20
2019-04-14T08:41:24.192Z,5.17
2019-04-14T08:42:24.753Z,5.09
2019-04-14T08:43:24.910Z,5.05
2019-04-14T08:44:25.942Z,4.91
2019-04-14T08:45:25.266Z,4.91
2019-04-14T08:46:25.605Z,4.73
2019-04-14T08:47:25.479Z,4.73
2019-04-14T08:48:24.168Z,4.79
2019-04-14T08:49:24.614Z,4.83
2019-04-14T08:50:24.312Z,4.73
2019-04-14T08:51:25.239Z,4.75
2019-04-14T08:52:24.403Z,4.76
2019-04-14T08:53:25.740Z,4.76
2019-04-14T08:54:25.808Z,4.76
2019-04-14T08:55:24.055Z,4.83
2019-04-14T08:56:24.066Z,4.92
2019-04-14T08:57:25.049Z,5.12
2019-04-14T08:58:25.257Z,5.01
2019-04-14T08:59:24.137Z,5.04
2019-04-14T09:00:24.394Z,4.80
2019-04-14T09:01:24.634Z,5.14
2019-04-14T09:02:23.994Z,5.14
2019-04-14T09:03:24.746Z,5.13
2019-04-14T09:04:24.259Z,5.37
2019-04-14T09:05:24.740Z,5.32
2019-04-14T09:06:23.957Z,5.52
2019-04-14T09:07:24.637Z,5.75
2019-04-14T09:08:23.940Z,5.74
2019-04-14T09:09:23.903Z,5.85
2019-04-14T09:10:23.888Z,5.85
2019-04-14T09:11:23.895Z,5.86
2019-04-14T09:12:24.663Z,5.86
2019-04-14T09:13:24.524Z,5.91
2019-04-14T09:14:24.920Z,6.04
2019-04-14T09:15:23.844Z,6.06
2019-04-14T09:16:24.934Z,5.98
2019-04-14T09:17:24.389Z,6.13
2019-04-14T09:18:25.221Z,6.26
2019-04-14T09:19:24.025Z,6.69
2019-04-14T09:20:23.790Z,7.04
2019-04-14T09:21:24.139Z,7.19
2019-04-14T09:22:25.069Z,7.41
2019-04-14T09:23:23.769Z,7.66
2019-04-14T09:24:25.161Z,7.72
2019-04-14T09:25:23.753Z,7.72
2019-04-14T09:26:25.651Z,7.69
2019-04-14T09:27:24.677Z,7.60
2019-04-14T09:28:26.330Z,7.69
2019-04-14T09:29:24.506Z,7.69
2019-04-14T09:30:24.620Z,7.79
2019-04-14T09:31:24.094Z,7.84
2019-04-14T09:32:25.052Z,7.81
2019-04-14T09:33:23.684Z,7.71
2019-04-14T09:34:23.837Z,7.52
2019-04-14T09:35:23.636Z,7.38
2019-04-14T09:36:24.370Z,7.31
2019-04-14T09:37:24.255Z,7.17
2019-04-14T09:38:23.641Z,7.08
2019-04-14T09:39:24.429Z,6.87
2019-04-14T09:40:24.601Z,6.61
2019-04-14T09:41:23.728Z,6.35
2019-04-14T09:42:24.455Z,6.04
2019-04-14T09:43:24.275Z,6.00
2019-04-14T09:44:24.285Z,5.83
2019-04-14T09:45:24.162Z,5.67
2019-04-14T09:46:24.648Z,5.45
2019-04-14T09:47:24.958Z,5.32
2019-04-14T09:48:25.543Z,5.35
2019-04-14T09:49:23.486Z,5.50
2019-04-14T09:50:24.516Z,5.52
2019-04-14T09:51:24.891Z,5.50
2019-04-14T09:52:23.456Z,5.41
2019-04-14T09:53:25.276Z,5.41
2019-04-14T09:54:23.443Z,5.40
2019-04-14T09:55:24.474Z,5.45
2019-04-14T09:56:24.751Z,5.43
2019-04-14T09:57:23.426Z,5.41
2019-04-14T09:58:25.414Z,5.53
2019-04-14T09:59:24.431Z,5.37
2019-04-14T10:00:23.582Z,5.25
2019-04-14T10:01:24.300Z,5.35
2019-04-14T10:02:24.421Z,5.37
2019-04-14T10:03:25.107Z,5.40
2019-04-14T10:04:24.156Z,5.48
2019-04-14T10:05:24.717Z,5.52
2019-04-14T10:06:23.873Z,5.64
2019-04-14T10:07:23.296Z,5.67
2019-04-14T10:08:23.325Z,5.59
2019-04-14T10:09:23.787Z,5.68
2019-04-14T10:10:24.586Z,5.60
2019-04-14T10:11:23.264Z,5.82
2019-04-14T10:12:23.872Z,5.95
2019-04-14T10:13:25.966Z,6.07
2019-04-14T10:14:23.229Z,6.36
2019-04-14T10:15:24.944Z,6.58
2019-04-14T10:16:24.495Z,6.87
2019-04-14T10:17:24.696Z,7.13
2019-04-14T10:18:25.367Z,7.23
2019-04-14T10:19:23.817Z,7.34
2019-04-14T10:20:23.168Z,7.56
2019-04-14T10:21:23.148Z,7.77
2019-04-14T10:22:33.335Z,7.89
2019-04-14T10:23:25.144Z,8.17
2019-04-14T10:24:23.554Z,8.53
2019-04-14T10:25:23.154Z,8.78
2019-04-14T10:26:24.531Z,8.93
2019-04-14T10:27:24.399Z,9.02
2019-04-14T10:28:23.114Z,9.12
2019-04-14T10:29:24.268Z,8.93
2019-04-14T10:30:23.056Z,8.86
2019-04-14T10:31:24.506Z,8.72
2019-04-14T10:32:24.168Z,8.65
2019-04-14T10:33:25.160Z,8.44
2019-04-14T10:34:24.213Z,8.25
2019-04-14T10:35:24.019Z,8.03
2019-04-14T10:36:22.997Z,7.82
2019-04-14T10:37:24.129Z,7.71
2019-04-14T10:38:26.098Z,7.49
2019-04-14T10:39:24.448Z,7.41
2019-04-14T10:40:24.530Z,7.77
2019-04-14T10:41:24.465Z,7.75
2019-04-14T10:42:24.003Z,7.82
2019-04-14T10:43:23.880Z,7.81
2019-04-14T10:44:24.240Z,7.75
2019-04-14T10:45:25.966Z,7.85
2019-04-14T10:46:23.584Z,8.08
2019-04-14T10:47:23.805Z,8.02
2019-04-14T10:48:22.869Z,7.94
2019-04-14T10:49:24.220Z,8.22
2019-04-14T10:50:30.651Z,8.29
2019-04-14T10:51:30.050Z,8.18
2019-04-14T10:52:23.820Z,7.99
2019-04-14T10:53:22.850Z,8.07
2019-04-14T10:54:22.808Z,8.29
2019-04-14T10:55:22.800Z,8.32
2019-04-14T10:56:22.787Z,8.57
2019-04-14T10:57:22.790Z,8.68
2019-04-14T10:58:22.793Z,8.78
2019-04-14T10:59:22.753Z,8.76
2019-04-14T11:00:22.744Z,8.48
2019-04-14T11:01:22.733Z,8.20
2019-04-14T11:02:22.722Z,8.18
2019-04-14T11:03:22.738Z,8.37
2019-04-14T11:04:22.699Z,8.00
2019-04-14T11:05:22.689Z,8.08
2019-04-14T11:06:22.682Z,7.87
2019-04-14T11:07:22.663Z,7.71
2019-04-14T11:08:22.686Z,7.53
2019-04-14T11:09:22.656Z,7.56
2019-04-14T11:10:22.687Z,7.47
2019-04-14T11:11:22.627Z,7.53
2019-04-14T11:12:22.629Z,7.69
2019-04-14T11:13:22.674Z,7.63
2019-04-14T11:14:22.612Z,7.67
2019-04-14T11:15:22.589Z,7.56
2019-04-14T11:16:22.737Z,7.27
2019-04-14T11:17:22.719Z,6.99
2019-04-14T11:18:22.619Z,6.90
2019-04-14T11:19:22.564Z,6.81
2019-04-14T11:20:22.533Z,6.98
2019-04-14T11:21:22.533Z,7.16
2019-04-14T11:22:22.533Z,7.09
2019-04-14T11:23:22.500Z,7.24
2019-04-14T11:24:24.112Z,7.37
2019-04-14T11:25:22.488Z,7.52
2019-04-14T11:26:22.482Z,7.82
2019-04-14T11:27:22.469Z,8.00
2019-04-14T11:28:22.453Z,8.29
2019-04-14T11:29:22.494Z,8.37
2019-04-14T11:30:22.432Z,8.47
2019-04-14T11:31:22.421Z,8.51
2019-04-14T11:32:22.406Z,8.62
2019-04-14T11:33:22.402Z,8.73
2019-04-14T11:34:22.419Z,8.76
2019-04-14T11:35:22.489Z,8.69
2019-04-14T11:36:22.377Z,8.69
2019-04-14T11:37:22.356Z,8.93
2019-04-14T11:38:22.346Z,9.12
2019-04-14T11:39:22.353Z,9.30
2019-04-14T11:40:22.326Z,9.35
2019-04-14T11:41:22.322Z,9.42
2019-04-14T11:42:22.360Z,9.30
2019-04-14T11:43:22.303Z,9.42
2019-04-14T11:44:22.312Z,9.48
2019-04-14T11:45:22.292Z,9.81
2019-04-14T11:46:22.269Z,10.24
2019-04-14T11:47:22.253Z,10.40
2019-04-14T11:48:22.247Z,10.37
2019-04-14T11:49:22.391Z,10.32
2019-04-14T11:50:22.239Z,10.26
2019-04-14T11:51:22.210Z,10.12
2019-04-14T11:52:22.196Z,10.01
2019-04-14T11:53:22.195Z,10.07
2019-04-14T11:54:22.212Z,9.82
2019-04-14T11:55:22.174Z,9.34
2019-04-14T11:56:22.159Z,8.69
2019-04-14T11:57:22.155Z,8.28
2019-04-14T11:58:22.155Z,7.97
2019-04-14T11:59:22.163Z,7.85
2019-04-14T12:00:22.120Z,7.85
2019-04-14T12:01:22.102Z,7.75
2019-04-14T12:02:22.149Z,7.75
2019-04-14T12:03:22.079Z,7.79
2019-04-14T12:04:22.117Z,7.63
2019-04-14T12:05:22.078Z,7.37
2019-04-14T12:06:22.054Z,7.08
2019-04-14T12:07:22.041Z,7.12
2019-04-14T12:08:23.068Z,7.09
2019-04-14T12:09:22.285Z,7.12
2019-04-14T12:10:22.018Z,7.17
2019-04-14T12:11:21.998Z,7.15
2019-04-14T12:12:21.996Z,7.17
2019-04-14T12:13:21.992Z,7.08
2019-04-14T12:14:23.826Z,7.08
2019-04-14T12:15:22.974Z,7.15
2019-04-14T12:16:23.045Z,7.20
2019-04-14T12:17:23.204Z,7.35
2019-04-14T12:18:22.811Z,7.20
2019-04-14T12:19:21.946Z,7.22
2019-04-14T12:20:21.894Z,7.19
2019-04-14T12:21:21.894Z,7.22
2019-04-14T12:22:21.943Z,7.15
2019-04-14T12:23:21.861Z,7.15
2019-04-14T12:24:23.084Z,7.15
2019-04-14T12:25:22.543Z,6.95
2019-04-14T12:26:21.880Z,6.79
2019-04-14T12:27:22.338Z,6.62
2019-04-14T12:28:22.581Z,6.48
2019-04-14T12:29:23.631Z,6.32
2019-04-14T12:30:22.405Z,6.36
2019-04-14T12:31:22.007Z,6.48
2019-04-14T12:32:21.814Z,6.46
2019-04-14T12:33:21.773Z,6.44
2019-04-14T12:34:21.845Z,6.56
2019-04-14T12:35:21.733Z,6.48
2019-04-14T12:36:22.744Z,6.47
2019-04-14T12:37:22.926Z,6.46
2019-04-14T12:38:22.975Z,6.41
2019-04-14T12:39:23.109Z,6.36
2019-04-14T12:40:22.323Z,6.35
2019-04-14T12:41:22.417Z,6.32
2019-04-14T12:42:22.581Z,6.28
2019-04-14T12:43:22.838Z,6.09
2019-04-14T12:44:23.185Z,6.07
2019-04-14T12:45:21.652Z,6.03
2019-04-14T12:46:21.629Z,6.10
2019-04-14T12:47:22.785Z,6.07
2019-04-14T12:48:23.912Z,6.00
2019-04-14T12:49:21.639Z,6.06
2019-04-14T12:50:21.577Z,6.13
2019-04-14T12:51:22.691Z,6.13
2019-04-14T12:52:22.617Z,6.07
2019-04-14T12:53:23.082Z,6.07
2019-04-14T12:54:22.253Z,6.19
2019-04-14T12:55:22.110Z,6.32
2019-04-14T12:56:21.565Z,6.43
2019-04-14T12:57:21.510Z,6.51
2019-04-14T12:58:21.499Z,6.51
2019-04-14T12:59:23.178Z,6.61
2019-04-14T13:00:21.473Z,6.65
2019-04-14T13:01:21.854Z,6.68
2019-04-14T13:02:22.407Z,6.56
2019-04-14T13:03:22.603Z,6.71
2019-04-14T13:04:24.199Z,6.80
2019-04-14T13:05:22.749Z,6.87
2019-04-14T13:06:22.141Z,6.87
2019-04-14T13:07:21.415Z,6.77
2019-04-14T13:08:22.450Z,6.69
2019-04-14T13:09:21.924Z,6.59
2019-04-14T13:10:22.330Z,6.40
2019-04-14T13:11:22.044Z,6.43
2019-04-14T13:12:21.361Z,6.30
2019-04-14T13:13:22.656Z,6.04
2019-04-14T13:14:22.705Z,6.00
2019-04-14T13:15:24.660Z,5.85
2019-04-14T13:16:22.719Z,5.77
2019-04-14T13:17:22.183Z,5.75
2019-04-14T13:18:23.525Z,5.83
2019-04-14T13:19:22.913Z,5.82
2019-04-14T13:20:21.275Z,5.67
2019-04-14T13:21:22.117Z,5.59
2019-04-14T13:22:33.000Z,5.56
2019-04-14T13:23:24.382Z,5.52
2019-04-14T13:24:21.695Z,5.41
2019-04-14T13:25:22.487Z,5.41
2019-04-14T13:26:21.935Z,5.41
2019-04-14T13:27:26.179Z,5.35
2019-04-14T13:28:22.408Z,5.41
2019-04-14T13:29:24.573Z,5.49
2019-04-14T13:30:21.167Z,5.48
2019-04-14T13:31:22.469Z,5.55
2019-04-14T13:32:21.940Z,5.55
2019-04-14T13:33:21.887Z,5.52
2019-04-14T13:34:21.165Z,5.49
2019-04-14T13:35:21.127Z,5.52
2019-04-14T13:36:22.267Z,5.45
2019-04-14T13:37:21.099Z,5.48
2019-04-14T13:38:22.481Z,5.49
2019-04-14T13:39:21.149Z,5.55